Time;durP1;ratioP1;P1;durP2;ratioP2;P2;SDS_P1;SDS_P2;PMS_P1;PMS_P2;Temp;Humidity;BMP_temperature;BMP_pressure;BME280_temperature;BME280_humidity;BME280_pressure;Samples;Min_cycle;Max_cycle;Signal;HPM_P1;HPM_P2
2022/10/03 00:00:11;;;;;;;14.98;3.35;;;10.00;99.90;;;;;;5052008;28;20037;-63
2022/10/03 00:03:16;;;;;;;9.82;2.30;;;10.00;99.90;;;;;;5053099;28;20041;-62
2022/10/03 00:06:13;;;;;;;11.95;2.58;;;10.00;99.90;;;;;;5051424;28;20624;-63
2022/10/03 00:08:41;;;;;;;16.60;3.65;;;10.00;99.90;;;;;;5051949;28;20040;-63
2022/10/03 00:11:50;;;;;;;12.57;2.60;;;10.00;99.90;;;;;;5051504;28;20033;-63
2022/10/03 00:14:35;;;;;;;8.82;2.72;;;10.00;99.90;;;;;;5039736;28;20049;-63
2022/10/03 00:17:17;;;;;;;8.47;2.00;;;10.00;99.90;;;;;;5034881;28;20115;-63
2022/10/03 00:19:48;;;;;;;12.45;2.85;;;10.00;99.90;;;;;;5050707;28;20120;-63
2022/10/03 00:22:35;;;;;;;7.45;2.50;;;10.10;99.90;;;;;;5051404;28;20049;-63
2022/10/03 00:25:01;;;;;;;9.82;3.28;;;10.20;99.90;;;;;;5052518;28;20045;-63
2022/10/03 00:27:39;;;;;;;7.07;1.75;;;10.20;99.90;;;;;;5051672;28;20039;-62
2022/10/03 00:30:18;;;;;;;11.85;2.67;;;10.30;99.90;;;;;;5051462;28;20107;-63
2022/10/03 00:33:25;;;;;;;12.77;3.25;;;10.30;99.90;;;;;;5051259;28;20406;-62
2022/10/03 00:35:53;;;;;;;13.15;3.28;;;10.30;99.90;;;;;;5012914;28;20037;-63
2022/10/03 00:38:43;;;;;;;11.32;2.55;;;10.40;99.90;;;;;;5047916;28;20073;-62
2022/10/03 00:41:29;;;;;;;7.90;2.28;;;10.40;99.90;;;;;;5050016;28;20041;-63
2022/10/03 00:44:16;;;;;;;17.80;3.08;;;10.40;99.90;;;;;;5050893;28;20052;-63
2022/10/03 00:47:26;;;;;;;13.02;2.75;;;10.50;99.90;;;;;;5050997;28;20092;-63
2022/10/03 00:50:13;;;;;;;12.68;2.65;;;10.50;99.90;;;;;;5027928;28;20057;-63
2022/10/03 00:53:15;;;;;;;13.82;2.92;;;10.60;99.90;;;;;;5051415;28;20044;-63
2022/10/03 00:56:20;;;;;;;12.98;3.10;;;10.70;99.90;;;;;;5049462;28;20033;-63
2022/10/03 00:58:51;;;;;;;10.38;3.30;;;10.70;99.90;;;;;;5044520;28;20104;-62
2022/10/03 01:01:44;;;;;;;12.27;3.22;;;10.70;99.90;;;;;;5050894;28;20490;-63
2022/10/03 01:04:32;;;;;;;15.07;2.72;;;10.80;99.90;;;;;;5050469;28;20055;-63
2022/10/03 01:07:28;;;;;;;12.55;2.83;;;10.80;99.90;;;;;;5050675;28;20040;-63
2022/10/03 01:10:14;;;;;;;9.10;2.38;;;10.90;99.90;;;;;;5050081;28;20045;-62
2022/10/03 01:13:08;;;;;;;12.18;2.35;;;10.90;99.90;;;;;;5052544;28;20039;-63
2022/10/03 01:15:45;;;;;;;12.60;3.35;;;10.90;99.90;;;;;;5049580;28;20520;-63
2022/10/03 01:18:28;;;;;;;11.10;2.90;;;10.90;99.90;;;;;;5050234;28;20052;-63
2022/10/03 01:21:21;;;;;;;13.57;2.67;;;10.90;99.90;;;;;;5051912;28;20079;-63
2022/10/03 01:24:14;;;;;;;7.63;3.13;;;10.90;99.90;;;;;;5050870;28;20083;-62
2022/10/03 01:26:52;;;;;;;9.63;2.50;;;10.90;99.90;;;;;;5050850;28;20041;-62
2022/10/03 01:32:14;;;;;;;13.55;3.28;;;10.80;99.90;;;;;;5050807;28;20056;-63
2022/10/03 01:35:06;;;;;;;9.90;2.53;;;10.80;99.90;;;;;;5050701;28;20513;-62
2022/10/03 01:37:53;;;;;;;8.05;2.08;;;10.80;99.90;;;;;;5049620;28;20080;-63
2022/10/03 01:40:28;;;;;;;9.65;2.35;;;10.80;99.90;;;;;;5051756;28;20090;-63
2022/10/03 01:43:19;;;;;;;6.75;1.95;;;10.70;99.90;;;;;;5051667;28;20044;-63
2022/10/03 01:46:18;;;;;;;11.15;2.58;;;10.70;99.90;;;;;;5049157;28;20041;-62
2022/10/03 01:49:10;;;;;;;14.70;2.92;;;10.70;99.90;;;;;;5043354;28;20120;-62
2022/10/03 01:52:08;;;;;;;11.80;2.33;;;10.60;99.90;;;;;;5049667;28;20087;-63
2022/10/03 01:54:54;;;;;;;10.98;2.22;;;10.60;99.90;;;;;;5051537;28;20367;-62
2022/10/03 01:57:34;;;;;;;7.45;2.28;;;10.50;99.90;;;;;;5050450;28;20029;-63
2022/10/03 02:00:16;;;;;;;10.98;3.10;;;10.40;99.90;;;;;;5050774;28;20094;-63
2022/10/03 02:03:13;;;;;;;12.00;2.88;;;10.40;99.90;;;;;;5033901;28;20068;-63
2022/10/03 02:05:57;;;;;;;10.23;2.40;;;10.40;99.90;;;;;;5051669;28;20044;-63
2022/10/03 02:08:27;;;;;;;7.28;2.25;;;10.40;99.90;;;;;;5053681;28;20505;-62
2022/10/03 02:11:01;;;;;;;11.88;2.15;;;10.30;99.90;;;;;;5037435;28;20044;-63
2022/10/03 02:13:41;;;;;;;6.57;1.70;;;10.30;99.90;;;;;;5053114;28;20043;-63
2022/10/03 02:16:32;;;;;;;7.40;2.13;;;10.30;99.90;;;;;;5053894;28;20064;-63
2022/10/03 02:19:20;;;;;;;7.47;1.60;;;10.30;99.90;;;;;;5054688;28;20450;-63
2022/10/03 02:21:54;;;;;;;6.55;1.48;;;10.20;99.90;;;;;;5053281;28;20053;-62
2022/10/03 02:24:35;;;;;;;7.95;1.50;;;10.20;99.90;;;;;;5053335;28;20049;-62
2022/10/03 02:27:19;;;;;;;8.80;1.92;;;10.20;99.90;;;;;;5054026;28;20048;-63
2022/10/03 02:29:54;;;;;;;15.40;2.25;;;10.10;99.90;;;;;;5054897;28;20037;-63
2022/10/03 02:32:35;;;;;;;11.18;2.42;;;10.10;99.90;;;;;;5036937;28;20041;-63
2022/10/03 02:35:26;;;;;;;6.07;1.90;;;10.10;99.90;;;;;;5052516;28;20143;-62
2022/10/03 02:38:04;;;;;;;7.28;1.60;;;10.10;99.90;;;;;;5053183;28;20048;-63
2022/10/03 02:40:59;;;;;;;8.40;1.98;;;10.10;99.90;;;;;;5052484;28;20052;-63
2022/10/03 02:43:42;;;;;;;12.02;2.28;;;10.10;99.90;;;;;;5053254;28;20083;-63
2022/10/03 02:46:31;;;;;;;8.05;1.55;;;10.10;99.90;;;;;;5052873;28;20049;-62
2022/10/03 02:49:22;;;;;;;7.45;1.90;;;10.10;99.90;;;;;;5043258;28;20080;-63
2022/10/03 02:52:17;;;;;;;10.20;2.67;;;10.20;99.90;;;;;;5052987;28;20045;-63
2022/10/03 02:55:13;;;;;;;7.72;2.17;;;10.20;99.90;;;;;;5017730;28;20064;-63
2022/10/03 02:58:00;;;;;;;10.00;3.75;;;10.30;99.90;;;;;;5053242;28;20049;-63
2022/10/03 03:00:38;;;;;;;8.65;2.28;;;10.30;99.90;;;;;;5054110;28;20103;-63
2022/10/03 03:03:52;;;;;;;9.00;2.20;;;10.30;99.90;;;;;;5052321;28;20041;-63
2022/10/03 03:06:45;;;;;;;9.60;2.05;;;10.40;99.90;;;;;;5032151;28;20072;-63
2022/10/03 03:09:41;;;;;;;9.05;1.55;;;10.30;99.90;;;;;;5052060;28;20079;-63
2022/10/03 03:12:19;;;;;;;8.18;2.28;;;10.40;99.90;;;;;;5052761;28;20076;-63
2022/10/03 03:15:12;;;;;;;10.10;2.55;;;10.40;99.90;;;;;;5052551;28;20048;-62
2022/10/03 03:18:11;;;;;;;8.90;2.63;;;10.40;99.90;;;;;;5034347;28;20119;-63
2022/10/03 03:21:11;;;;;;;8.13;2.05;;;10.40;99.90;;;;;;5052547;28;20037;-63
2022/10/03 03:24:04;;;;;;;9.98;2.00;;;10.40;99.90;;;;;;5053167;28;20037;-63
2022/10/03 03:26:49;;;;;;;7.45;2.17;;;10.40;99.90;;;;;;5052419;28;20485;-62
2022/10/03 03:29:46;;;;;;;7.00;1.73;;;10.40;99.90;;;;;;5053739;28;20041;-63
2022/10/03 03:32:13;;;;;;;7.05;2.13;;;10.40;99.90;;;;;;5035485;28;20036;-63
2022/10/03 03:35:03;;;;;;;6.47;2.03;;;10.30;99.90;;;;;;5052356;28;20524;-62
2022/10/03 03:37:31;;;;;;;10.50;1.95;;;10.30;99.90;;;;;;5051416;28;20507;-63
2022/10/03 03:40:22;;;;;;;7.45;2.72;;;10.20;99.90;;;;;;5052149;28;20124;-63
2022/10/03 03:43:22;;;;;;;10.05;2.25;;;10.30;99.90;;;;;;5035632;28;20125;-63
2022/10/03 03:46:03;;;;;;;9.88;2.40;;;10.20;99.90;;;;;;5050782;28;20087;-63
2022/10/03 03:48:51;;;;;;;7.22;1.75;;;10.20;99.90;;;;;;5035264;28;20067;-63
2022/10/03 03:51:38;;;;;;;7.82;1.80;;;10.20;99.90;;;;;;5051188;28;20041;-62
2022/10/03 03:54:49;;;;;;;8.38;1.90;;;10.10;99.90;;;;;;5052946;28;20537;-62
2022/10/03 03:57:50;;;;;;;10.30;2.05;;;10.00;99.90;;;;;;5053249;28;20048;-62
2022/10/03 04:00:19;;;;;;;10.13;1.88;;;10.00;99.90;;;;;;5052932;28;20079;-62
2022/10/03 04:02:54;;;;;;;9.90;1.80;;;10.00;99.90;;;;;;5052785;28;20037;-62
2022/10/03 04:05:45;;;;;;;10.45;2.60;;;10.00;99.90;;;;;;5051944;28;20041;-63
2022/10/03 04:08:35;;;;;;;7.18;2.58;;;9.90;99.90;;;;;;5053346;28;20029;-62
2022/10/03 04:11:17;;;;;;;7.25;2.08;;;9.90;99.90;;;;;;5052813;28;20036;-62
2022/10/03 04:13:57;;;;;;;10.57;3.13;;;9.90;99.90;;;;;;5052086;28;20509;-62
2022/10/03 04:19:27;;;;;;;6.43;1.83;;;9.80;99.90;;;;;;5050730;28;20037;-62
2022/10/03 04:22:10;;;;;;;7.90;1.73;;;9.80;99.90;;;;;;5051242;28;20075;-62
2022/10/03 04:25:16;;;;;;;6.72;1.65;;;9.70;99.90;;;;;;5051551;28;20057;-62
2022/10/03 04:28:10;;;;;;;9.13;2.00;;;9.70;99.90;;;;;;5051990;28;20041;-63
2022/10/03 04:31:06;;;;;;;7.93;1.80;;;9.60;99.90;;;;;;5051334;28;20118;-62
2022/10/03 04:33:32;;;;;;;6.45;1.85;;;9.60;99.90;;;;;;5050492;28;20044;-63
2022/10/03 04:36:31;;;;;;;7.47;1.92;;;9.60;99.90;;;;;;5051070;28;20047;-62
2022/10/03 04:39:10;;;;;;;6.07;1.80;;;9.50;99.90;;;;;;5051077;28;20049;-62
2022/10/03 04:41:52;;;;;;;7.55;1.83;;;9.50;99.90;;;;;;5050190;28;20040;-63
2022/10/03 04:45:03;;;;;;;7.47;2.05;;;9.40;99.90;;;;;;5052130;28;20048;-62
2022/10/03 04:47:40;;;;;;;9.05;1.80;;;9.40;99.90;;;;;;5042608;28;20094;-62
2022/10/03 04:50:19;;;;;;;4.75;1.40;;;9.40;99.90;;;;;;5052248;28;20044;-62
2022/10/03 04:53:09;;;;;;;9.05;2.15;;;9.40;99.90;;;;;;5051185;28;20072;-62
2022/10/03 04:55:50;;;;;;;6.55;1.85;;;9.30;99.90;;;;;;5050311;28;20099;-62
2022/10/03 04:58:37;;;;;;;7.45;1.90;;;9.30;99.90;;;;;;5050756;28;20045;-62
2022/10/03 05:01:12;;;;;;;6.28;1.70;;;9.30;99.90;;;;;;5051206;28;20052;-63
2022/10/03 05:03:56;;;;;;;20.98;4.20;;;9.20;99.90;;;;;;5052113;28;20047;-63
2022/10/03 05:06:37;;;;;;;102.77;98.40;;;9.20;99.90;;;;;;5052065;28;20139;-62
2022/10/03 05:09:24;;;;;;;10.73;8.23;;;9.20;99.90;;;;;;5051211;28;20106;-62
2022/10/03 05:12:01;;;;;;;50.67;48.28;;;9.20;99.90;;;;;;5051762;28;20045;-62
2022/10/03 05:14:41;;;;;;;18.98;17.40;;;9.10;99.90;;;;;;5051902;28;20043;-62
2022/10/03 05:17:44;;;;;;;54.60;52.13;;;9.10;99.90;;;;;;5049590;28;20509;-63
2022/10/03 05:20:25;;;;;;;26.73;25.33;;;9.00;99.90;;;;;;5051969;28;20037;-62
2022/10/03 05:23:06;;;;;;;12.52;10.55;;;9.00;99.90;;;;;;5033212;28;20033;-62
2022/10/03 05:25:53;;;;;;;6.88;2.65;;;9.00;99.90;;;;;;5051818;28;20049;-62
2022/10/03 05:28:49;;;;;;;15.90;14.70;;;9.00;99.90;;;;;;5051777;28;20514;-62
2022/10/03 05:31:43;;;;;;;6.00;2.00;;;8.90;99.90;;;;;;5032887;28;20120;-62
2022/10/03 05:34:15;;;;;;;7.18;2.15;;;8.90;99.90;;;;;;5051761;28;20041;-63
2022/10/03 05:37:01;;;;;;;7.90;1.75;;;8.90;99.90;;;;;;5033316;28;20037;-62
2022/10/03 05:39:45;;;;;;;8.38;2.13;;;8.80;99.90;;;;;;5050769;28;20048;-62
2022/10/03 05:42:39;;;;;;;8.15;1.70;;;8.80;99.90;;;;;;5055413;28;20079;-62
2022/10/03 05:45:29;;;;;;;4.97;1.58;;;8.80;99.90;;;;;;5054403;28;20059;-63
2022/10/03 05:48:17;;;;;;;8.63;4.32;;;8.80;99.90;;;;;;5055684;28;20493;-62
2022/10/03 05:51:12;;;;;;;14.80;13.57;;;8.80;99.90;;;;;;5055139;28;20040;-62
2022/10/03 05:53:43;;;;;;;16.58;15.40;;;8.70;99.90;;;;;;5053153;28;20037;-62
2022/10/03 05:56:42;;;;;;;7.13;4.82;;;8.70;99.90;;;;;;5055322;28;20040;-62
2022/10/03 05:59:43;;;;;;;9.32;2.90;;;8.70;99.90;;;;;;5053091;28;20102;-61
2022/10/03 06:02:31;;;;;;;7.55;2.47;;;8.70;99.90;;;;;;5031247;28;20077;-62
2022/10/03 06:04:59;;;;;;;7.63;2.47;;;8.70;99.90;;;;;;5031626;28;20045;-61
2022/10/03 06:07:47;;;;;;;12.77;7.80;;;8.70;99.90;;;;;;5042447;28;20198;-61
2022/10/03 06:10:39;;;;;;;6.75;3.20;;;8.70;99.90;;;;;;5033167;28;20037;-61
2022/10/03 06:13:29;;;;;;;7.40;2.40;;;8.80;99.90;;;;;;5030810;28;20060;-61
2022/10/03 06:16:33;;;;;;;5.88;2.53;;;8.80;99.90;;;;;;5051419;28;20044;-61
2022/10/03 06:19:24;;;;;;;9.65;4.68;;;8.80;99.90;;;;;;5049476;28;20056;-61
2022/10/03 06:22:17;;;;;;;11.23;2.92;;;8.90;99.90;;;;;;5050200;28;20443;-62
2022/10/03 06:25:20;;;;;;;8.07;7.28;;;8.90;99.90;;;;;;5043725;28;20075;-61
2022/10/03 06:28:04;;;;;;;14.85;6.30;;;9.00;99.90;;;;;;5049931;28;20512;-61
2022/10/03 06:30:55;;;;;;;8.15;7.35;;;9.00;99.90;;;;;;5083479;28;20490;-62
2022/10/03 06:34:16;;;;;;;8.65;6.03;;;9.10;99.90;;;;;;5050023;28;20048;-62
2022/10/03 06:36:51;;;;;;;6.53;4.35;;;9.20;99.90;;;;;;5012589;28;20522;-61
2022/10/03 06:39:55;;;;;;;9.55;8.35;;;9.20;99.90;;;;;;5052103;28;20477;-62
2022/10/03 06:42:53;;;;;;;8.85;7.10;;;9.30;99.90;;;;;;5033643;28;20095;-62
2022/10/03 06:45:36;;;;;;;12.32;9.85;;;9.40;99.90;;;;;;4995512;28;20554;-62
2022/10/03 06:48:11;;;;;;;14.25;12.90;;;9.40;99.90;;;;;;5047758;28;20512;-62
2022/10/03 06:50:46;;;;;;;;;;;9.50;99.90;;;;;;5052799;28;20095;-62
2022/10/03 06:57:48;;;;;;;16.75;15.45;;;9.60;99.90;;;;;;5031511;28;20060;-62
2022/10/03 07:00:16;;;;;;;14.48;13.13;;;9.70;99.90;;;;;;5067264;28;20073;-62
2022/10/03 07:03:00;;;;;;;14.77;13.65;;;9.80;99.90;;;;;;5049877;28;20045;-62
2022/10/03 07:06:21;;;;;;;14.10;12.70;;;9.90;99.90;;;;;;5051393;28;20494;-61
2022/10/03 07:08:53;;;;;;;15.15;13.90;;;9.90;99.90;;;;;;5045879;28;20405;-62
2022/10/03 07:11:49;;;;;;;14.80;13.50;;;10.00;99.90;;;;;;5050364;28;20041;-62
2022/10/03 07:15:04;;;;;;;15.57;12.85;;;10.10;99.90;;;;;;5051523;28;20528;-62
2022/10/03 07:17:48;;;;;;;13.98;11.85;;;10.30;99.90;;;;;;5046994;28;20059;-62
2022/10/03 07:20:29;;;;;;;11.60;6.40;;;10.40;99.90;;;;;;5050186;28;20103;-62
2022/10/03 07:23:12;;;;;;;11.10;6.35;;;10.50;99.90;;;;;;5050669;28;20317;-62
2022/10/03 07:25:46;;;;;;;12.38;10.63;;;10.60;99.90;;;;;;5033426;28;20154;-62
2022/10/03 07:28:59;;;;;;;11.05;9.70;;;10.70;99.90;;;;;;5049741;28;20072;-62
2022/10/03 07:31:30;;;;;;;11.05;6.38;;;10.90;99.90;;;;;;5046193;28;20079;-62
2022/10/03 07:34:18;;;;;;;18.23;7.75;;;11.00;99.90;;;;;;5049743;28;20048;-62
2022/10/03 07:40:23;;;;;;;15.30;8.18;;;11.20;99.90;;;;;;5035780;28;20041;-62
2022/10/03 07:43:26;;;;;;;14.52;9.10;;;11.40;99.90;;;;;;5032067;28;20056;-62
2022/10/03 07:46:14;;;;;;;32.95;29.50;;;11.50;99.90;;;;;;5049168;28;20057;-63
2022/10/03 07:48:48;;;;;;;19.25;12.30;;;11.70;99.90;;;;;;5050071;28;20110;-62
2022/10/03 07:51:39;;;;;;;13.88;6.35;;;11.80;99.90;;;;;;5052430;28;20036;-62
2022/10/03 07:54:27;;;;;;;11.38;6.78;;;11.90;99.90;;;;;;5051628;28;20091;-62
2022/10/03 07:57:11;;;;;;;9.38;7.22;;;12.10;99.90;;;;;;5037188;28;20043;-62
2022/10/03 07:59:52;;;;;;;10.18;9.13;;;12.20;99.90;;;;;;5053242;28;20049;-63
2022/10/03 08:02:38;;;;;;;12.40;7.70;;;12.30;99.90;;;;;;5052730;28;20087;-62
2022/10/03 08:05:16;;;;;;;7.95;6.07;;;12.40;99.90;;;;;;5048859;28;20064;-62
2022/10/03 08:08:30;;;;;;;13.65;7.65;;;12.50;99.90;;;;;;5051525;28;20037;-62
2022/10/03 08:11:14;;;;;;;9.95;6.65;;;12.60;99.90;;;;;;5059041;28;20032;-65
2022/10/03 08:14:23;;;;;;;12.82;5.53;;;12.70;99.90;;;;;;5045170;28;20048;-66
2022/10/03 08:17:26;;;;;;;10.18;7.82;;;12.80;99.90;;;;;;5044251;28;20040;-64
2022/10/03 08:20:13;;;;;;;11.27;3.00;;;12.90;99.90;;;;;;5042200;28;20037;-64
2022/10/03 08:23:22;;;;;;;10.63;3.78;;;13.00;99.90;;;;;;5052465;28;20490;-62
2022/10/03 08:26:10;;;;;;;9.57;3.72;;;13.10;99.90;;;;;;5062490;28;20437;-60
2022/10/03 08:29:14;;;;;;;13.15;4.57;;;13.20;99.90;;;;;;5051122;28;20041;-61
2022/10/03 08:31:58;;;;;;;9.10;2.75;;;13.30;99.90;;;;;;5052513;28;20036;-61
2022/10/03 08:34:29;;;;;;;10.00;2.58;;;13.50;99.90;;;;;;5052431;28;20033;-61
2022/10/03 08:37:23;;;;;;;11.90;3.05;;;13.50;99.90;;;;;;5051022;28;20044;-60
2022/10/03 08:40:08;;;;;;;8.23;2.28;;;13.60;99.90;;;;;;5050615;28;20045;-60
2022/10/03 08:43:08;;;;;;;7.82;3.45;;;13.70;99.90;;;;;;5052427;28;20041;-61
2022/10/03 08:46:07;;;;;;;11.57;5.15;;;13.80;99.90;;;;;;5052119;28;20060;-61
2022/10/03 08:49:21;;;;;;;26.67;17.08;;;13.80;99.90;;;;;;5050907;28;20398;-60
2022/10/03 08:51:58;;;;;;;5.88;1.95;;;14.00;99.90;;;;;;5052246;28;20367;-60
2022/10/03 08:54:39;;;;;;;8.25;2.63;;;14.10;99.90;;;;;;5051089;28;20448;-60
2022/10/03 08:57:19;;;;;;;9.63;2.50;;;14.20;99.90;;;;;;5050871;28;20056;-60
2022/10/03 08:59:54;;;;;;;9.90;4.75;;;14.20;99.90;;;;;;5052206;28;20389;-61
2022/10/03 09:02:50;;;;;;;9.27;2.15;;;14.30;99.90;;;;;;5051323;28;20086;-60
2022/10/03 09:05:38;;;;;;;9.65;1.85;;;14.30;99.90;;;;;;5033891;28;20112;-60
2022/10/03 09:08:19;;;;;;;7.68;1.88;;;14.40;99.90;;;;;;5051398;28;20041;-60
2022/10/03 09:11:15;;;;;;;8.27;3.92;;;14.40;99.90;;;;;;5050902;28;20129;-61
2022/10/03 09:14:02;;;;;;;6.22;2.80;;;14.50;99.90;;;;;;5052029;28;20501;-61
2022/10/03 09:16:39;;;;;;;6.82;1.35;;;14.50;99.90;;;;;;5035964;28;20389;-60
2022/10/03 09:20:01;;;;;;;7.18;3.60;;;14.60;99.90;;;;;;5056065;28;20127;-60
2022/10/03 09:22:44;;;;;;;10.55;1.75;;;14.60;99.90;;;;;;5052988;28;20083;-60
2022/10/03 09:25:43;;;;;;;9.45;1.92;;;14.60;99.90;;;;;;5054012;28;20111;-60
2022/10/03 09:28:48;;;;;;;6.88;1.77;;;14.70;99.90;;;;;;5053098;28;20049;-60
2022/10/03 09:31:51;;;;;;;8.17;1.97;;;14.70;99.90;;;;;;5054532;28;20123;-61
2022/10/03 09:34:38;;;;;;;7.32;1.83;;;14.80;99.90;;;;;;5054580;28;20602;-60
2022/10/03 09:37:50;;;;;;;5.88;1.20;;;14.90;99.90;;;;;;5053711;28;20056;-61
2022/10/03 09:40:24;;;;;;;8.90;1.98;;;14.90;99.90;;;;;;5055047;28;20049;-60
2022/10/03 09:43:09;;;;;;;6.93;1.80;;;15.00;99.90;;;;;;5054739;28;20455;-60
2022/10/03 09:46:08;;;;;;;8.48;2.15;;;15.00;99.90;;;;;;5055329;28;20089;-61
2022/10/03 09:49:14;;;;;;;8.38;1.60;;;15.10;99.90;;;;;;5055500;28;20041;-60
2022/10/03 09:51:45;;;;;;;8.85;1.27;;;15.10;99.90;;;;;;5053786;28;20402;-61
2022/10/03 09:54:30;;;;;;;10.68;2.10;;;15.20;99.90;;;;;;5054569;28;20532;-61
2022/10/03 09:57:08;;;;;;;7.70;1.80;;;15.20;99.90;;;;;;5054623;28;20037;-61
2022/10/03 09:59:56;;;;;;;7.78;1.58;;;15.20;99.90;;;;;;5055232;28;20053;-60
2022/10/03 10:02:38;;;;;;;4.72;1.60;;;15.30;99.90;;;;;;5054000;28;20049;-61
2022/10/03 10:05:43;;;;;;;7.18;1.50;;;15.30;99.90;;;;;;5053229;28;20041;-60
2022/10/03 10:08:33;;;;;;;7.60;1.55;;;15.30;99.90;;;;;;5037195;28;20040;-60
2022/10/03 10:11:15;;;;;;;7.28;1.58;;;15.40;99.90;;;;;;5054306;28;20045;-60
2022/10/03 10:14:22;;;;;;;5.20;1.67;;;15.50;99.90;;;;;;5055323;28;20098;-61
2022/10/03 10:17:00;;;;;;;7.00;1.45;;;15.50;99.90;;;;;;5054332;28;20044;-60
2022/10/03 10:19:50;;;;;;;6.35;1.42;;;15.40;99.90;;;;;;5054145;28;20041;-61
2022/10/03 10:22:25;;;;;;;6.40;1.63;;;15.50;99.90;;;;;;5054623;28;20047;-61
2022/10/03 10:25:32;;;;;;;6.85;1.52;;;15.50;99.90;;;;;;5052603;28;20078;-60
2022/10/03 10:28:10;;;;;;;7.03;2.20;;;15.50;99.90;;;;;;5053080;28;20041;-61
2022/10/03 10:31:02;;;;;;;7.43;2.20;;;15.50;99.90;;;;;;5053657;28;20041;-61
2022/10/03 10:33:55;;;;;;;6.32;1.38;;;15.60;99.90;;;;;;5059759;28;20126;-61
2022/10/03 10:36:51;;;;;;;5.82;1.45;;;15.60;99.90;;;;;;5054406;28;20124;-61
2022/10/03 10:39:21;;;;;;;11.73;2.00;;;15.60;99.90;;;;;;5053938;28;20393;-61
2022/10/03 10:42:14;;;;;;;6.70;1.50;;;15.70;99.90;;;;;;5053487;28;20041;-61
2022/10/03 10:44:58;;;;;;;7.10;2.10;;;15.70;99.90;;;;;;5053393;28;20041;-61
2022/10/03 10:48:02;;;;;;;7.15;1.73;;;15.80;99.90;;;;;;5052434;28;20064;-61
2022/10/03 10:51:16;;;;;;;6.80;1.58;;;15.80;99.90;;;;;;5078785;28;20059;-61
2022/10/03 10:54:18;;;;;;;7.40;1.40;;;15.80;99.90;;;;;;5044857;28;20405;-61
2022/10/03 10:57:06;;;;;;;8.98;2.15;;;15.80;99.90;;;;;;5054659;28;20393;-61
2022/10/03 10:59:57;;;;;;;7.00;2.00;;;15.80;99.90;;;;;;5054239;28;20053;-61
2022/10/03 11:02:44;;;;;;;6.63;1.38;;;15.80;99.90;;;;;;5052853;28;20539;-61
2022/10/03 11:06:06;;;;;;;6.88;1.70;;;15.80;99.90;;;;;;5054183;28;20037;-61
2022/10/03 11:09:09;;;;;;;6.50;1.58;;;15.90;99.90;;;;;;5053514;28;20081;-61
2022/10/03 11:12:00;;;;;;;5.97;1.48;;;16.00;99.90;;;;;;5036092;28;20037;-61
2022/10/03 11:15:16;;;;;;;4.47;1.40;;;16.00;99.90;;;;;;5051805;28;20037;-61
2022/10/03 11:18:16;;;;;;;5.32;1.45;;;16.10;99.90;;;;;;5077571;28;20057;-61
2022/10/03 11:21:00;;;;;;;6.55;1.70;;;16.10;99.90;;;;;;5052926;28;20052;-61
2022/10/03 11:23:34;;;;;;;7.00;2.00;;;16.10;99.90;;;;;;5052517;28;20049;-61
2022/10/03 11:26:32;;;;;;;6.35;1.38;;;16.10;99.90;;;;;;5052317;28;20143;-61
2022/10/03 11:29:03;;;;;;;6.13;1.05;;;16.20;99.90;;;;;;5051843;28;20378;-61
2022/10/03 11:31:57;;;;;;;5.72;1.20;;;16.10;99.90;;;;;;5052687;28;20390;-61
2022/10/03 11:34:57;;;;;;;6.40;1.42;;;16.20;99.90;;;;;;5051710;28;20036;-61
2022/10/03 11:37:39;;;;;;;5.43;1.33;;;16.20;99.90;;;;;;5049933;28;20072;-62
2022/10/03 11:40:23;;;;;;;6.75;1.30;;;16.20;99.90;;;;;;5035165;28;20537;-62
2022/10/03 11:43:33;;;;;;;4.83;1.70;;;16.30;99.90;;;;;;5038095;28;20049;-62
2022/10/03 11:46:23;;;;;;;5.22;1.70;;;16.40;99.90;;;;;;5051308;28;20877;-61
2022/10/03 11:49:23;;;;;;;7.68;2.50;;;16.40;99.90;;;;;;5067897;28;20040;-61
2022/10/03 11:52:13;;;;;;;7.97;1.30;;;16.50;99.90;;;;;;5051922;28;20052;-61
2022/10/03 11:54:42;;;;;;;5.95;1.58;;;16.50;99.90;;;;;;5069328;28;20037;-61
2022/10/03 11:57:14;;;;;;;7.53;2.03;;;16.50;99.90;;;;;;5034115;28;20041;-61
2022/10/03 12:00:12;;;;;;;11.23;2.33;;;16.40;99.90;;;;;;5052603;28;20094;-61
2022/10/03 12:02:59;;;;;;;5.20;1.45;;;16.30;99.90;;;;;;5052869;28;20064;-61
2022/10/03 12:05:51;;;;;;;5.82;1.30;;;16.30;99.90;;;;;;5049206;28;20055;-61
2022/10/03 12:11:54;;;;;;;5.95;1.50;;;16.30;99.90;;;;;;5049811;28;20075;-61
2022/10/03 12:14:34;;;;;;;5.20;1.50;;;16.40;99.90;;;;;;5031935;28;20045;-61
2022/10/03 12:17:14;;;;;;;6.25;1.33;;;16.50;99.90;;;;;;5014995;28;20397;-61
2022/10/03 12:19:55;;;;;;;6.05;1.23;;;16.50;99.90;;;;;;5050635;28;20052;-61
2022/10/03 12:22:55;;;;;;;6.13;1.50;;;16.50;99.90;;;;;;5084766;28;20091;-61
2022/10/03 12:25:29;;;;;;;8.13;1.30;;;16.50;99.90;;;;;;5066907;28;20107;-61
2022/10/03 12:28:13;;;;;;;5.65;1.40;;;16.50;99.90;;;;;;5051488;28;20045;-61
2022/10/03 12:30:59;;;;;;;6.75;1.90;;;16.50;99.90;;;;;;5051446;28;20037;-61
2022/10/03 12:33:56;;;;;;;6.57;1.45;;;16.50;99.90;;;;;;5050174;28;20055;-61
2022/10/03 12:36:49;;;;;;;4.18;1.15;;;16.50;99.90;;;;;;5051200;28;20066;-61
2022/10/03 12:39:25;;;;;;;4.97;1.65;;;16.40;99.90;;;;;;5051482;28;20505;-61
2022/10/03 12:41:59;;;;;;;5.95;1.67;;;16.50;99.90;;;;;;5052289;28;20033;-61
2022/10/03 12:44:56;;;;;;;5.10;1.73;;;16.50;99.90;;;;;;5052101;28;20048;-61
2022/10/03 12:47:36;;;;;;;2.72;0.98;;;16.50;99.90;;;;;;5083805;28;20053;-61
2022/10/03 12:50:43;;;;;;;4.78;1.20;;;16.50;99.90;;;;;;5052049;28;20040;-61
2022/10/03 12:53:14;;;;;;;6.95;1.60;;;16.60;99.90;;;;;;5063714;28;20482;-61
2022/10/03 12:55:55;;;;;;;4.50;1.45;;;16.60;99.90;;;;;;5084667;28;20048;-61
2022/10/03 12:58:53;;;;;;;6.85;1.58;;;16.60;99.90;;;;;;5084445;28;20213;-61
2022/10/03 13:01:39;;;;;;;4.32;1.35;;;16.60;99.90;;;;;;5050155;28;20048;-61
2022/10/03 13:04:24;;;;;;;5.22;1.52;;;16.50;99.90;;;;;;5050602;28;20515;-61
2022/10/03 13:06:55;;;;;;;6.05;1.40;;;16.50;99.90;;;;;;5049836;28;20041;-61
2022/10/03 13:09:41;;;;;;;5.57;1.20;;;16.50;99.90;;;;;;5084108;28;20045;-61
2022/10/03 13:12:32;;;;;;;5.32;1.23;;;16.50;99.90;;;;;;5050691;28;20041;-61
2022/10/03 13:15:17;;;;;;;5.65;1.40;;;16.50;99.90;;;;;;5049901;28;20123;-61
2022/10/03 13:18:01;;;;;;;5.07;1.20;;;16.50;99.90;;;;;;5052405;28;20045;-61
2022/10/03 13:20:35;;;;;;;5.97;1.40;;;16.60;99.90;;;;;;5049789;28;20783;-61
2022/10/03 13:23:23;;;;;;;;;;;16.60;99.90;;;;;;5051002;28;20122;-60
2022/10/03 13:25:59;;;;;;;7.00;1.50;;;16.60;99.90;;;;;;5050697;28;19916;-61
2022/10/03 13:28:49;;;;;;;7.05;1.58;;;16.60;99.90;;;;;;5049681;28;20126;-61
2022/10/03 13:31:36;;;;;;;4.32;1.20;;;16.60;99.90;;;;;;5047438;28;20029;-62
2022/10/03 13:34:13;;;;;;;7.63;1.70;;;16.60;99.90;;;;;;5034190;28;20045;-61
2022/10/03 13:36:54;;;;;;;6.18;1.20;;;16.60;99.90;;;;;;5046785;28;20040;-61
2022/10/03 13:39:34;;;;;;;5.88;1.58;;;16.60;99.90;;;;;;5047184;28;20037;-61
2022/10/03 13:42:36;;;;;;;8.15;1.58;;;16.60;99.90;;;;;;5044457;28;20033;-61
2022/10/03 13:45:13;;;;;;;6.38;1.35;;;16.50;99.90;;;;;;5046791;28;20102;-61
2022/10/03 13:47:43;;;;;;;10.10;1.90;;;16.50;99.90;;;;;;5048076;28;20052;-62
2022/10/03 13:50:21;;;;;;;5.40;1.70;;;16.50;99.90;;;;;;5046600;28;20115;-61
2022/10/03 13:52:59;;;;;;;5.57;1.30;;;16.50;99.90;;;;;;5043870;28;20037;-61
2022/10/03 13:55:49;;;;;;;6.25;1.20;;;16.50;99.90;;;;;;5044359;28;20048;-61
2022/10/03 13:58:23;;;;;;;6.72;1.42;;;16.50;99.90;;;;;;5046253;28;20254;-62
2022/10/03 14:00:56;;;;;;;;;;;16.50;99.90;;;;;;5047827;28;20037;-61
2022/10/03 14:03:42;;;;;;;6.28;1.38;;;16.50;99.90;;;;;;5049566;28;19927;-61
2022/10/03 14:06:32;;;;;;;6.00;1.95;;;16.50;99.90;;;;;;5048155;28;20045;-62
2022/10/03 14:09:33;;;;;;;5.03;1.55;;;16.50;99.90;;;;;;5052176;28;20080;-62
2022/10/03 14:12:20;;;;;;;7.00;1.52;;;16.60;99.90;;;;;;5026259;28;20048;-62
2022/10/03 14:14:50;;;;;;;5.45;1.52;;;16.60;99.90;;;;;;5050011;28;20505;-62
2022/10/03 14:17:46;;;;;;;9.90;1.52;;;16.60;99.90;;;;;;5081610;28;20048;-62
2022/10/03 14:20:41;;;;;;;5.18;1.63;;;16.50;99.90;;;;;;5050410;28;20052;-62
2022/10/03 14:23:25;;;;;;;5.78;1.20;;;16.50;99.90;;;;;;5022495;28;20551;-62
2022/10/03 14:26:16;;;;;;;6.45;1.58;;;16.50;99.90;;;;;;5051231;28;20429;-61
2022/10/03 14:29:01;;;;;;;4.70;1.77;;;16.50;99.90;;;;;;5050856;28;20053;-61
2022/10/03 14:31:34;;;;;;;5.80;1.63;;;16.50;99.90;;;;;;5050186;28;20076;-62
2022/10/03 14:34:06;;;;;;;7.63;1.75;;;16.50;99.90;;;;;;5050207;28;20413;-62
2022/10/03 14:37:03;;;;;;;8.15;1.75;;;16.40;99.90;;;;;;5050326;28;20051;-62
2022/10/03 14:39:31;;;;;;;5.57;1.40;;;16.40;99.90;;;;;;5040494;28;20041;-62
2022/10/03 14:42:08;;;;;;;7.50;2.05;;;16.30;99.90;;;;;;5051760;28;20045;-61
2022/10/03 14:44:39;;;;;;;5.13;1.77;;;16.30;99.90;;;;;;5049902;28;20041;-62
2022/10/03 14:47:14;;;;;;;8.30;1.95;;;16.30;99.90;;;;;;5050268;28;20102;-61